Strona główna
METAR-TAF:

METAR-TAF

Lotnisko :

Port lotniczy Kair

Kair, Egipt

Szerokość geograficzna: 30-08N, Długość geograficzna: 031-24E, wysokość: 64 m

Aktualna obserwacja pogody

Raport powstał 8 minut temu, godzina 07:00 UTC
Wiatr 6 kt od północny wschód
Temperatura 30°C
Wilgotność 46%
Ciśnienie 1014 hPa
Widzialność 10 km lub więcej
Brak chmur poniżej 1500 m i brak chmur cumulonimbus

METAR: HECA 200700Z 05006KT CAVOK 30/17 Q1014 NOSIG

czas: 09:08 (07:08 UTC)

Prognoza

Raport powstał 2 godziny i 8 minut temu, godzina 05:00 UTC
Prognoza ważna od 20 godzina 06 UTC do 21 godzina 12 UTC
Wiatr 9 kt od północny wschód
Widzialność 10 km lub więcej
Brak chmur poniżej 1500 m i brak chmur cumulonimbus
Przejściowo
od 20 godzina 15 UTC do 20 godzina 21 UTC
Wiatr 12 kt od północ w porywach dochodzący do 25 kt
Przejściowo
od 21 godzina 00 UTC do 21 godzina 06 UTC
Wiatr 6 kt od północny wschód
Widzialność: 6000 m

TAF: HECA 200500Z 2006/2112 04009KT CAVOK TEMPO 2015/2021 36012G25KT TEMPO 2100/2106 05006KT 6000 NSC

Obserwacja i prognoza pogody dla ponad 4000 lotnisk (raport METAR i TAF).

Dostępne stacje oznaczono żółtymi i czerwonymi punktami na mapie.

Najedź kursorem aby zobaczyć nazwę stacji.

Kliknij aby zobaczyć obserwacje i prognozy pogody.

Aby zmienić mapę: kliknij na zielony przycisk z czarnym krzyżykiem, aby powiększyć; na zielony przycisk z myślnikiem, aby pomniejszyć; na zielone strzałki, aby przejść do map sąsiednich.


METAR-TAF: